Time;durP1;ratioP1;P1;durP2;ratioP2;P2;SDS_P1;SDS_P2;PMS_P1;PMS_P2;Temp;Humidity;BMP_temperature;BMP_pressure;BME280_temperature;BME280_humidity;BME280_pressure;Samples;Min_cycle;Max_cycle;Signal;HPM_P1;HPM_P2
2022/11/09 00:01:27;;;;;;;8.02;1.40;;;9.30;99.90;;;;;;4940435;29;20027;-93
2022/11/09 00:04:01;;;;;;;7.28;1.15;;;9.40;99.90;;;;;;4939229;29;20118;-91
2022/11/09 00:06:28;;;;;;;6.25;1.45;;;9.30;99.90;;;;;;4954794;28;20035;-94
2022/11/09 00:08:53;;;;;;;15.35;1.67;;;9.30;99.90;;;;;;4974154;28;20505;-92
2022/11/09 00:11:20;;;;;;;12.48;2.22;;;9.40;99.90;;;;;;4942554;29;20110;-92
2022/11/09 00:13:46;;;;;;;13.93;2.88;;;9.40;99.90;;;;;;4971847;28;20043;-93
2022/11/09 00:16:15;;;;;;;13.85;3.08;;;9.40;99.90;;;;;;4940142;29;20034;-94
2022/11/09 00:18:47;;;;;;;10.77;1.48;;;9.30;99.90;;;;;;4942074;29;20023;-94
2022/11/09 00:21:21;;;;;;;9.43;2.17;;;9.30;99.90;;;;;;4940909;29;20082;-94
2022/11/09 00:23:47;;;;;;;10.45;1.60;;;9.30;99.90;;;;;;4940091;29;20024;-93
2022/11/09 00:26:15;;;;;;;9.98;1.83;;;9.30;99.90;;;;;;4939755;29;20037;-93
2022/11/09 00:28:41;;;;;;;10.90;1.77;;;9.30;99.90;;;;;;4940030;29;20031;-94
2022/11/09 00:31:19;;;;;;;12.50;1.65;;;9.30;99.90;;;;;;4939714;29;20026;-94
2022/11/09 00:33:49;;;;;;;10.43;2.13;;;9.30;99.90;;;;;;4939923;29;20061;-93
2022/11/09 00:36:17;;;;;;;14.57;1.80;;;9.30;99.90;;;;;;4939657;29;20055;-94
2022/11/09 00:38:50;;;;;;;11.57;1.77;;;9.30;99.90;;;;;;4939897;29;20023;-94
2022/11/09 00:41:17;;;;;;;11.35;1.67;;;9.30;99.90;;;;;;4939625;29;20038;-94
2022/11/09 00:43:42;;;;;;;9.98;2.13;;;9.30;99.90;;;;;;4972110;28;20051;-93
2022/11/09 00:46:08;;;;;;;15.45;1.90;;;9.30;99.90;;;;;;4941208;29;20104;-94
2022/11/09 00:48:36;;;;;;;9.80;1.33;;;9.30;99.90;;;;;;4940837;29;20049;-94
2022/11/09 00:51:02;;;;;;;12.57;1.50;;;9.30;99.90;;;;;;4941128;29;20024;-95
2022/11/09 00:53:29;;;;;;;8.95;1.45;;;9.30;99.90;;;;;;4956158;29;20168;-94
2022/11/09 00:56:10;;;;;;;4.70;1.17;;;9.30;99.90;;;;;;4939152;29;20027;-96
2022/11/09 00:58:37;;;;;;;;;;;9.30;99.90;;;;;;4940528;29;20035;-96
2022/11/09 01:01:16;;;;;;;12.65;1.85;;;9.40;99.90;;;;;;4939060;29;20013;-92
2022/11/09 01:03:43;;;;;;;14.32;2.65;;;9.30;99.90;;;;;;4938553;29;20142;-93
2022/11/09 01:06:16;;;;;;;8.50;1.45;;;9.40;99.90;;;;;;4939164;29;20121;-94
2022/11/09 01:08:42;;;;;;;15.48;1.85;;;9.40;99.90;;;;;;4931055;28;20035;-93
2022/11/09 01:11:09;;;;;;;6.78;1.52;;;9.50;99.90;;;;;;4954942;29;20019;-93
2022/11/09 01:13:36;;;;;;;9.73;1.75;;;9.50;99.90;;;;;;4970671;28;20035;-93
2022/11/09 01:16:08;;;;;;;11.48;1.85;;;9.50;99.90;;;;;;4938931;29;20059;-94
2022/11/09 01:18:34;;;;;;;15.45;2.42;;;9.50;99.90;;;;;;4939340;29;20122;-94
2022/11/09 01:21:02;;;;;;;14.27;2.42;;;9.60;99.90;;;;;;4939273;29;20123;-95
2022/11/09 01:23:28;;;;;;;10.60;2.22;;;9.50;99.90;;;;;;4938844;29;20024;-93
2022/11/09 01:25:58;;;;;;;10.50;2.20;;;9.60;99.90;;;;;;4939020;29;20034;-94
2022/11/09 01:28:26;;;;;;;10.90;3.17;;;9.60;99.90;;;;;;4938358;29;20377;-94
2022/11/09 01:30:52;;;;;;;13.02;2.25;;;9.60;99.90;;;;;;4970590;28;20035;-94
2022/11/09 01:33:19;;;;;;;15.18;1.50;;;9.50;99.90;;;;;;4950166;29;20042;-92
2022/11/09 01:35:45;;;;;;;13.23;2.15;;;9.60;99.90;;;;;;4939247;29;20039;-94
2022/11/09 01:38:11;;;;;;;14.27;1.60;;;9.50;99.90;;;;;;4938579;29;20034;-94
2022/11/09 01:40:38;;;;;;;9.00;1.70;;;9.50;99.90;;;;;;4938505;29;20129;-94
2022/11/09 01:43:14;;;;;;;12.35;1.80;;;9.60;99.90;;;;;;4938389;29;20023;-93
2022/11/09 01:45:41;;;;;;;10.20;1.70;;;9.60;99.90;;;;;;4939762;29;20043;-94
2022/11/09 01:48:14;;;;;;;11.75;1.90;;;9.60;99.90;;;;;;4940428;29;20476;-93
2022/11/09 01:51:04;;;;;;;10.95;1.33;;;9.50;99.90;;;;;;4941284;29;20346;-94
2022/11/09 01:53:36;;;;;;;16.33;1.77;;;9.50;99.90;;;;;;4941644;29;20039;-94
2022/11/09 01:56:05;;;;;;;9.18;1.60;;;9.50;99.90;;;;;;4939436;29;20023;-94
2022/11/09 01:58:42;;;;;;;10.55;1.83;;;9.50;99.90;;;;;;4939131;29;20122;-95
2022/11/09 02:01:10;;;;;;;18.13;2.22;;;9.50;99.90;;;;;;4939120;29;20031;-94
2022/11/09 02:03:44;;;;;;;7.65;1.95;;;9.50;99.90;;;;;;4941550;29;20035;-94
2022/11/09 02:06:13;;;;;;;12.63;2.05;;;9.50;99.90;;;;;;4938207;29;20589;-93
2022/11/09 02:08:40;;;;;;;14.88;2.03;;;9.50;99.90;;;;;;4938083;29;20031;-95
2022/11/09 02:11:10;;;;;;;7.63;1.50;;;9.50;99.90;;;;;;4934686;29;20501;-94
2022/11/09 02:13:43;;;;;;;15.70;2.10;;;9.50;99.90;;;;;;4941825;28;20536;-94
2022/11/09 02:16:12;;;;;;;10.88;1.80;;;9.50;99.90;;;;;;4938282;29;20031;-95
2022/11/09 02:18:46;;;;;;;15.38;1.83;;;9.50;99.90;;;;;;4970687;28;20118;-92
2022/11/09 02:21:12;;;;;;;11.05;1.70;;;9.50;99.90;;;;;;4940261;29;20054;-93
2022/11/09 02:23:38;;;;;;;11.88;2.20;;;9.40;99.90;;;;;;4938400;29;20547;-93
2022/11/09 02:26:12;;;;;;;11.48;2.33;;;9.40;99.90;;;;;;4937755;29;20027;-94
2022/11/09 02:28:39;;;;;;;12.75;1.60;;;9.40;99.90;;;;;;4938003;29;20070;-93
2022/11/09 02:31:09;;;;;;;14.15;1.90;;;9.40;99.90;;;;;;4938984;29;20032;-95
2022/11/09 02:34:06;;;;;;;13.07;1.60;;;9.40;99.90;;;;;;4939492;29;20042;-95
2022/11/09 02:36:32;;;;;;;17.00;2.47;;;9.40;99.90;;;;;;4927008;29;20271;-94
2022/11/09 02:38:57;;;;;;;8.75;1.38;;;9.40;99.90;;;;;;4938265;29;20031;-93
2022/11/09 02:41:23;;;;;;;6.63;1.40;;;9.40;99.90;;;;;;4938325;29;20496;-92
2022/11/09 02:43:52;;;;;;;11.55;2.17;;;9.40;99.90;;;;;;4941193;29;20047;-94
2022/11/09 02:46:44;;;;;;;10.27;2.15;;;9.40;99.90;;;;;;4941761;29;20035;-93
2022/11/09 02:49:10;;;;;;;7.75;1.25;;;9.40;99.90;;;;;;4938864;29;20074;-93
2022/11/09 02:51:36;;;;;;;10.52;1.40;;;9.50;99.90;;;;;;4941221;29;20385;-94
2022/11/09 02:54:02;;;;;;;8.20;1.88;;;9.50;99.90;;;;;;4942049;29;20039;-93
2022/11/09 02:56:27;;;;;;;10.20;1.40;;;9.50;99.90;;;;;;4941588;29;20038;-94
2022/11/09 02:58:53;;;;;;;10.77;1.95;;;9.40;99.90;;;;;;4960296;29;20115;-93
2022/11/09 03:01:19;;;;;;;7.07;1.30;;;9.40;99.90;;;;;;4941394;29;20593;-94
2022/11/09 03:03:44;;;;;;;10.50;1.50;;;9.40;99.90;;;;;;4941285;29;20023;-93
2022/11/09 03:06:10;;;;;;;7.32;1.58;;;9.40;99.90;;;;;;4940666;29;20031;-94
2022/11/09 03:08:36;;;;;;;13.98;1.90;;;9.40;99.90;;;;;;4941268;29;20059;-93
2022/11/09 03:11:01;;;;;;;13.02;2.13;;;9.40;99.90;;;;;;4941811;29;20055;-91
2022/11/09 03:13:27;;;;;;;9.45;1.60;;;9.40;99.90;;;;;;4937049;29;20126;-94
2022/11/09 03:15:53;;;;;;;10.20;1.48;;;9.40;99.90;;;;;;4958032;29;20024;-94
2022/11/09 03:18:18;;;;;;;13.95;1.50;;;9.40;99.90;;;;;;4941584;29;20024;-94
2022/11/09 03:20:44;;;;;;;8.25;1.60;;;9.30;99.90;;;;;;4935866;29;20027;-94
2022/11/09 03:23:10;;;;;;;14.38;2.50;;;9.40;99.90;;;;;;4941064;29;20396;-94
2022/11/09 03:25:36;;;;;;;14.13;1.60;;;9.40;99.90;;;;;;4941451;29;20421;-95
2022/11/09 03:28:04;;;;;;;14.98;1.73;;;9.40;99.90;;;;;;4941236;29;20152;-95
2022/11/09 03:30:30;;;;;;;10.75;1.55;;;9.40;99.90;;;;;;4941066;29;20166;-94
2022/11/09 03:33:03;;;;;;;10.80;1.48;;;9.40;99.90;;;;;;4940010;29;20028;-92
2022/11/09 03:35:29;;;;;;;13.07;2.13;;;9.40;99.90;;;;;;4940636;29;20027;-94
2022/11/09 03:37:54;;;;;;;6.72;1.88;;;9.40;99.90;;;;;;4940899;29;20038;-92
2022/11/09 03:40:20;;;;;;;11.57;1.88;;;9.40;99.90;;;;;;4941436;29;20091;-94
2022/11/09 03:42:47;;;;;;;5.78;1.30;;;9.40;99.90;;;;;;4973068;28;20031;-94
2022/11/09 03:45:14;;;;;;;12.43;1.83;;;9.40;99.90;;;;;;4943483;28;20113;-92
2022/11/09 03:47:44;;;;;;;9.93;1.63;;;9.40;99.90;;;;;;4942193;29;20511;-95
2022/11/09 03:50:11;;;;;;;10.38;2.10;;;9.40;99.90;;;;;;4940580;29;20451;-94
2022/11/09 03:52:37;;;;;;;13.13;1.80;;;9.40;99.90;;;;;;4939292;29;20031;-93
2022/11/09 03:55:04;;;;;;;9.48;1.98;;;9.30;99.90;;;;;;4939631;29;20418;-94
2022/11/09 03:57:30;;;;;;;7.82;1.55;;;9.40;99.90;;;;;;4939924;29;20039;-93
2022/11/09 03:59:55;;;;;;;8.95;1.63;;;9.40;99.90;;;;;;4939827;29;20031;-94
2022/11/09 04:02:21;;;;;;;11.82;1.50;;;9.40;99.90;;;;;;4924827;29;20032;-95
2022/11/09 04:04:47;;;;;;;9.95;2.60;;;9.40;99.90;;;;;;4920733;29;20028;-92
2022/11/09 04:07:13;;;;;;;10.90;1.80;;;9.40;99.90;;;;;;4921358;29;20043;-92
2022/11/09 04:09:39;;;;;;;11.23;1.75;;;9.40;99.90;;;;;;4920463;29;20501;-93
2022/11/09 04:12:05;;;;;;;11.23;1.65;;;9.40;99.90;;;;;;4921144;29;20035;-93
2022/11/09 04:14:31;;;;;;;11.05;1.52;;;9.40;99.90;;;;;;4948648;28;20035;-94
2022/11/09 04:16:59;;;;;;;15.55;1.85;;;9.40;99.90;;;;;;4921191;29;20040;-92
2022/11/09 04:19:24;;;;;;;9.05;1.58;;;9.40;99.90;;;;;;4922414;29;20028;-93
2022/11/09 04:21:50;;;;;;;10.95;1.58;;;9.40;99.90;;;;;;4924064;29;20056;-93
2022/11/09 04:24:16;;;;;;;11.25;1.60;;;9.40;99.90;;;;;;4916621;29;20051;-94
2022/11/09 04:26:41;;;;;;;10.38;2.03;;;9.40;99.90;;;;;;4924967;29;20374;-94
2022/11/09 04:29:07;;;;;;;11.80;1.85;;;9.40;99.90;;;;;;4922515;29;20035;-94
2022/11/09 04:31:33;;;;;;;6.80;1.50;;;9.50;99.90;;;;;;4920872;29;20031;-94
2022/11/09 04:33:58;;;;;;;6.40;1.50;;;9.40;99.90;;;;;;4920745;29;20031;-92
2022/11/09 04:36:24;;;;;;;9.18;1.63;;;9.40;99.90;;;;;;4919950;29;20166;-92
2022/11/09 04:38:50;;;;;;;10.02;1.40;;;9.40;99.90;;;;;;4920348;29;20115;-93
2022/11/09 04:41:16;;;;;;;6.88;1.60;;;9.40;99.90;;;;;;4920225;29;20036;-93
2022/11/09 04:43:41;;;;;;;12.38;1.77;;;9.40;99.90;;;;;;4919702;29;20019;-93
2022/11/09 04:46:07;;;;;;;9.38;1.77;;;9.40;99.90;;;;;;4919785;29;20481;-93
2022/11/09 04:48:33;;;;;;;9.02;1.90;;;9.30;99.90;;;;;;4920401;29;20039;-94
2022/11/09 04:51:07;;;;;;;9.40;1.65;;;9.30;99.90;;;;;;4920783;29;20055;-94
2022/11/09 04:53:34;;;;;;;11.15;1.90;;;9.30;99.90;;;;;;4920159;29;20055;-93
2022/11/09 04:56:00;;;;;;;8.00;1.70;;;9.30;99.90;;;;;;4921098;29;20106;-93
2022/11/09 04:58:26;;;;;;;8.20;1.58;;;9.30;99.90;;;;;;4920615;29;20028;-93
2022/11/09 05:00:52;;;;;;;7.78;2.00;;;9.30;99.90;;;;;;4922008;29;20529;-93
2022/11/09 05:03:19;;;;;;;4.47;1.55;;;9.30;99.90;;;;;;4920336;29;20030;-92
2022/11/09 05:05:44;;;;;;;10.95;1.77;;;9.20;99.90;;;;;;4919173;29;20036;-94
2022/11/09 05:08:11;;;;;;;11.05;1.95;;;9.20;99.90;;;;;;4921166;29;20043;-92
2022/11/09 05:10:37;;;;;;;11.95;1.90;;;9.20;99.90;;;;;;4920205;29;20143;-93
2022/11/09 05:13:08;;;;;;;6.85;1.70;;;9.20;99.90;;;;;;4919381;29;20055;-93
2022/11/09 05:15:35;;;;;;;6.38;2.00;;;9.10;99.90;;;;;;4914821;29;20062;-93
2022/11/09 05:18:01;;;;;;;7.90;1.52;;;9.10;99.90;;;;;;4919159;29;20031;-93
2022/11/09 05:20:27;;;;;;;4.47;1.50;;;9.10;99.90;;;;;;4919352;29;20188;-94
2022/11/09 05:25:38;;;;;;;8.85;2.22;;;9.00;99.90;;;;;;4936902;29;20042;-94
2022/11/09 05:28:04;;;;;;;14.93;2.03;;;9.00;99.90;;;;;;4919366;29;20498;-93
2022/11/09 05:30:30;;;;;;;9.50;2.45;;;8.90;99.90;;;;;;4915725;28;20027;-94
2022/11/09 05:32:56;;;;;;;10.48;2.33;;;9.00;99.90;;;;;;4919792;29;20034;-95
2022/11/09 05:35:22;;;;;;;9.15;1.85;;;8.90;99.90;;;;;;4952657;29;20032;-93
2022/11/09 05:37:48;;;;;;;13.63;2.88;;;8.90;99.90;;;;;;4919502;29;20023;-92
2022/11/09 05:40:16;;;;;;;13.73;2.47;;;8.90;99.90;;;;;;4930304;29;20035;-94
2022/11/09 05:42:42;;;;;;;13.90;2.53;;;8.90;99.90;;;;;;4918603;29;20528;-94
2022/11/09 05:45:13;;;;;;;14.05;2.10;;;8.80;99.90;;;;;;4917810;29;20063;-92
2022/11/09 05:47:40;;;;;;;6.97;1.52;;;8.80;99.90;;;;;;4918299;29;20042;-94
2022/11/09 05:50:07;;;;;;;5.72;1.70;;;8.80;99.90;;;;;;4934284;29;20074;-93
2022/11/09 05:52:33;;;;;;;12.63;2.35;;;8.80;99.90;;;;;;4918126;29;20473;-92
2022/11/09 05:54:59;;;;;;;13.50;2.83;;;8.80;99.90;;;;;;4936005;29;20157;-94
2022/11/09 05:57:26;;;;;;;7.43;1.70;;;8.80;99.90;;;;;;4934025;29;20066;-93
2022/11/09 05:59:52;;;;;;;7.90;1.95;;;8.70;99.90;;;;;;4918950;29;20040;-92
2022/11/09 06:02:17;;;;;;;9.60;1.90;;;8.70;99.90;;;;;;4934214;29;20059;-92
2022/11/09 06:04:43;;;;;;;7.97;1.70;;;8.70;99.90;;;;;;4933751;29;20066;-94
2022/11/09 06:07:08;;;;;;;7.80;1.30;;;8.60;99.90;;;;;;4934461;29;20039;-94
2022/11/09 06:09:34;;;;;;;7.38;2.05;;;8.70;99.90;;;;;;4934038;29;20497;-93
2022/11/09 06:12:00;;;;;;;9.52;1.50;;;8.60;99.90;;;;;;4933920;29;20031;-93
2022/11/09 06:14:25;;;;;;;9.95;2.00;;;8.60;99.90;;;;;;4949878;29;20023;-92
2022/11/09 06:16:51;;;;;;;6.78;1.23;;;8.60;99.90;;;;;;4940721;29;20576;-94
2022/11/09 06:19:17;;;;;;;9.60;1.70;;;8.60;99.90;;;;;;4941596;29;20078;-95
2022/11/09 06:21:42;;;;;;;8.40;1.65;;;8.50;99.90;;;;;;4943411;29;20503;-93
2022/11/09 06:24:09;;;;;;;13.32;1.88;;;8.50;99.90;;;;;;4944033;29;20515;-94
2022/11/09 06:26:35;;;;;;;7.40;1.50;;;8.50;99.90;;;;;;4941923;29;20046;-94
2022/11/09 06:29:00;;;;;;;8.60;2.15;;;8.50;99.90;;;;;;4941264;29;20091;-93
2022/11/09 06:31:27;;;;;;;10.63;1.42;;;8.40;99.90;;;;;;4941259;29;20085;-93
2022/11/09 06:33:52;;;;;;;11.65;2.45;;;8.40;99.90;;;;;;4957423;29;20042;-95
2022/11/09 06:36:18;;;;;;;8.10;1.67;;;8.40;99.90;;;;;;4937287;29;20035;-93
2022/11/09 06:38:47;;;;;;;8.35;1.20;;;8.40;99.90;;;;;;4941972;29;20023;-93
2022/11/09 06:41:12;;;;;;;11.48;2.05;;;8.40;99.90;;;;;;4942903;29;20063;-94
2022/11/09 06:43:38;;;;;;;9.38;1.90;;;8.40;99.90;;;;;;4941505;29;20051;-94
2022/11/09 06:46:04;;;;;;;9.82;1.50;;;8.30;99.90;;;;;;4940812;29;20031;-93
2022/11/09 06:48:29;;;;;;;9.15;2.95;;;8.40;99.90;;;;;;4940987;29;20043;-93
2022/11/09 06:51:02;;;;;;;8.82;2.55;;;8.40;99.90;;;;;;4951280;28;20590;-93
2022/11/09 06:53:30;;;;;;;13.63;1.30;;;8.40;99.90;;;;;;4950057;29;20039;-91
2022/11/09 06:56:00;;;;;;;5.35;1.27;;;8.40;99.90;;;;;;4950359;29;20015;-92
2022/11/09 06:58:26;;;;;;;9.43;2.42;;;8.40;99.90;;;;;;4963285;28;20061;-94
2022/11/09 07:00:52;;;;;;;2.55;1.20;;;8.40;99.90;;;;;;4948571;29;20047;-93
2022/11/09 07:03:19;;;;;;;2.88;1.40;;;8.40;99.90;;;;;;4947855;29;20668;-92
2022/11/09 07:05:46;;;;;;;4.32;1.20;;;8.40;99.90;;;;;;4971634;28;20067;-94
2022/11/09 07:08:12;;;;;;;8.40;1.00;;;8.40;99.90;;;;;;4947833;29;20043;-93
2022/11/09 07:10:39;;;;;;;4.20;1.08;;;8.40;99.90;;;;;;4956294;29;20020;-92
2022/11/09 07:13:05;;;;;;;7.80;1.30;;;8.50;99.90;;;;;;4947116;29;20027;-93
2022/11/09 07:15:32;;;;;;;8.18;1.48;;;8.40;99.90;;;;;;4945587;28;20050;-94
2022/11/09 07:18:03;;;;;;;8.18;1.25;;;8.50;99.90;;;;;;4946805;29;20070;-93
2022/11/09 07:20:29;;;;;;;3.65;1.38;;;8.50;99.90;;;;;;4971952;28;20097;-94
2022/11/09 07:22:55;;;;;;;13.32;3.55;;;8.50;99.90;;;;;;4963954;28;20051;-95
2022/11/09 07:25:21;;;;;;;11.02;1.60;;;8.50;99.90;;;;;;4950560;28;20058;-95
2022/11/09 07:27:47;;;;;;;5.13;1.10;;;8.50;99.90;;;;;;4971045;28;20039;-96
2022/11/09 07:30:13;;;;;;;6.18;1.95;;;8.50;99.90;;;;;;4944708;29;20023;-95
2022/11/09 07:32:39;;;;;;;5.30;1.30;;;8.50;99.90;;;;;;4942508;29;20055;-93
2022/11/09 07:35:06;;;;;;;5.75;1.08;;;8.50;99.90;;;;;;4948840;29;20019;-94
2022/11/09 07:37:32;;;;;;;8.75;1.98;;;8.60;99.90;;;;;;4971607;28;20031;-94
2022/11/09 07:39:58;;;;;;;8.23;1.17;;;8.60;99.90;;;;;;4950194;29;20519;-93
2022/11/09 07:42:24;;;;;;;8.10;1.42;;;8.60;99.90;;;;;;4946925;29;20031;-93
2022/11/09 07:44:50;;;;;;;6.78;1.30;;;8.60;99.90;;;;;;4942838;28;20053;-93
2022/11/09 07:47:17;;;;;;;5.82;1.10;;;8.60;99.90;;;;;;4942640;29;20039;-93
2022/11/09 07:49:43;;;;;;;9.75;1.45;;;8.60;99.90;;;;;;4941220;29;20027;-93
2022/11/09 07:52:09;;;;;;;11.65;1.65;;;8.60;99.90;;;;;;4940591;29;20091;-93
2022/11/09 07:54:35;;;;;;;5.05;1.30;;;8.70;99.90;;;;;;4943805;29;20023;-92
2022/11/09 07:57:01;;;;;;;8.73;1.35;;;8.60;99.90;;;;;;4947045;29;20031;-95
2022/11/09 07:59:27;;;;;;;4.95;1.10;;;8.70;99.90;;;;;;4950840;29;20083;-93
2022/11/09 08:01:52;;;;;;;4.38;1.05;;;8.70;99.90;;;;;;4955684;29;20027;-93
2022/11/09 08:04:18;;;;;;;3.15;0.98;;;8.70;99.90;;;;;;4951253;29;20038;-92
2022/11/09 08:06:44;;;;;;;9.20;1.38;;;8.80;99.90;;;;;;4957434;28;20122;-94
2022/11/09 08:09:10;;;;;;;6.18;0.80;;;8.80;99.90;;;;;;4961292;29;20023;-94
2022/11/09 08:11:36;;;;;;;7.60;0.90;;;8.80;99.90;;;;;;4959411;29;20051;-93
2022/11/09 08:14:01;;;;;;;4.00;1.10;;;8.80;99.90;;;;;;4952552;28;20035;-94
2022/11/09 08:16:27;;;;;;;4.25;0.73;;;8.90;99.90;;;;;;4959124;29;20127;-95
2022/11/09 08:18:53;;;;;;;8.45;1.00;;;8.90;99.90;;;;;;4959996;29;20098;-94
2022/11/09 08:21:18;;;;;;;6.90;1.10;;;8.90;99.90;;;;;;4963973;29;20023;-92
2022/11/09 08:23:44;;;;;;;6.05;0.98;;;9.00;99.90;;;;;;4970429;28;20098;-94
2022/11/09 08:26:10;;;;;;;6.93;0.80;;;9.00;99.90;;;;;;4978626;28;20035;-94
2022/11/09 08:28:39;;;;;;;3.28;0.50;;;9.00;99.90;;;;;;4962345;29;20031;-93
2022/11/09 08:31:06;;;;;;;3.47;0.60;;;9.00;99.90;;;;;;4952817;29;20038;-90
2022/11/09 08:33:35;;;;;;;2.75;0.65;;;9.00;99.90;;;;;;4946313;29;20347;-95
2022/11/09 08:36:07;;;;;;;7.32;1.48;;;9.00;99.90;;;;;;4956351;28;20011;-92
2022/11/09 08:38:36;;;;;;;2.80;0.70;;;9.10;99.90;;;;;;4935626;29;20055;-92
2022/11/09 08:41:02;;;;;;;3.17;0.55;;;9.10;99.90;;;;;;4937569;29;20054;-92
2022/11/09 08:43:27;;;;;;;4.38;0.60;;;9.10;99.90;;;;;;4954289;28;20051;-92
2022/11/09 08:45:53;;;;;;;3.63;0.63;;;9.10;99.90;;;;;;4948572;29;20548;-92
2022/11/09 08:48:19;;;;;;;1.65;0.52;;;9.10;99.90;;;;;;4944529;29;20504;-94
2022/11/09 08:50:44;;;;;;;3.90;1.35;;;9.20;99.90;;;;;;4943862;29;20047;-94
2022/11/09 08:53:10;;;;;;;0.55;0.50;;;9.20;99.90;;;;;;4964876;29;20503;-94
2022/11/09 08:55:39;;;;;;;3.92;0.73;;;9.30;99.90;;;;;;4968020;28;20020;-93
2022/11/09 08:58:04;;;;;;;5.72;0.88;;;9.30;99.90;;;;;;4978862;28;20026;-90
2022/11/09 09:00:30;;;;;;;3.95;0.57;;;9.40;99.90;;;;;;4970378;28;20024;-91
2022/11/09 09:03:02;;;;;;;8.43;0.90;;;9.50;99.90;;;;;;4978070;28;20023;-90
2022/11/09 09:05:28;;;;;;;2.22;0.70;;;9.60;99.90;;;;;;4955903;29;20536;-95
2022/11/09 09:07:54;;;;;;;6.18;1.40;;;9.70;99.90;;;;;;4953053;28;20153;-92
2022/11/09 09:10:19;;;;;;;4.50;0.63;;;9.90;99.90;;;;;;4939695;29;20046;-92
2022/11/09 09:12:45;;;;;;;6.03;1.25;;;10.00;99.90;;;;;;4938476;29;20484;-87
2022/11/09 09:15:11;;;;;;;5.70;0.90;;;10.20;99.90;;;;;;4939226;29;20727;-92
2022/11/09 09:17:37;;;;;;;5.90;1.00;;;10.40;99.90;;;;;;4954922;29;20065;-92
2022/11/09 09:20:03;;;;;;;3.63;0.80;;;10.70;99.90;;;;;;4939621;29;20032;-90
2022/11/09 09:22:28;;;;;;;3.45;0.80;;;10.90;99.90;;;;;;4931223;29;20039;-91
2022/11/09 09:24:54;;;;;;;1.38;0.63;;;11.10;99.90;;;;;;4921948;29;20102;-91
2022/11/09 09:27:22;;;;;;;8.05;1.63;;;11.40;99.90;;;;;;4935192;29;20046;-91
2022/11/09 09:29:48;;;;;;;5.97;0.80;;;11.70;99.90;;;;;;4935433;29;20059;-92
2022/11/09 09:32:13;;;;;;;7.50;1.05;;;11.90;99.90;;;;;;4935031;29;20118;-90
2022/11/09 09:34:39;;;;;;;5.18;0.93;;;12.20;99.90;;;;;;4935158;29;20055;-90
2022/11/09 09:37:05;;;;;;;7.88;0.93;;;12.40;99.90;;;;;;4936319;29;20040;-91
2022/11/09 09:39:30;;;;;;;4.85;0.80;;;12.70;99.90;;;;;;4935128;29;20515;-91
2022/11/09 09:42:11;;;;;;;2.90;0.63;;;12.90;99.90;;;;;;4935222;29;20035;-90
2022/11/09 09:44:56;;;;;;;8.05;1.60;;;13.10;99.90;;;;;;4949523;28;20146;-91
2022/11/09 09:47:42;;;;;;;3.17;0.68;;;13.30;99.90;;;;;;4957175;28;20101;-91
2022/11/09 09:50:29;;;;;;;6.38;1.10;;;13.50;99.90;;;;;;4957181;28;20031;-91
2022/11/09 09:53:19;;;;;;;5.07;0.70;;;13.80;99.90;;;;;;4957236;28;20496;-91
2022/11/09 09:55:51;;;;;;;3.05;0.93;;;14.00;99.90;;;;;;4973531;28;20043;-90
2022/11/09 09:58:29;;;;;;;13.07;1.63;;;14.10;99.90;;;;;;4957571;28;20049;-91
2022/11/09 10:01:15;;;;;;;6.03;1.33;;;14.20;99.90;;;;;;4957720;28;20041;-90
2022/11/09 10:03:41;;;;;;;6.93;1.08;;;14.30;99.90;;;;;;4938299;29;20110;-91
2022/11/09 10:06:16;;;;;;;7.88;1.10;;;14.50;99.90;;;;;;4938076;29;20125;-90
2022/11/09 10:09:22;;;;;;;9.55;1.15;;;14.60;99.90;;;;;;4953876;29;20095;-90
2022/11/09 10:12:08;;;;;;;8.38;1.73;;;14.70;99.90;;;;;;4879418;29;20035;-91
2022/11/09 10:14:51;;;;;;;10.23;1.35;;;14.80;99.90;;;;;;4880450;29;20040;-92
2022/11/09 10:17:41;;;;;;;4.10;0.90;;;14.80;99.90;;;;;;4879813;29;20025;-92
2022/11/09 10:20:22;;;;;;;8.45;1.55;;;14.60;99.90;;;;;;4896569;29;20637;-90
2022/11/09 10:23:13;;;;;;;5.28;1.10;;;14.30;99.90;;;;;;4897305;29;20036;-90
2022/11/09 10:25:44;;;;;;;8.25;1.02;;;14.00;99.90;;;;;;4896606;29;20044;-91
2022/11/09 10:28:13;;;;;;;9.70;2.22;;;14.00;99.90;;;;;;4895232;29;20044;-92
2022/11/09 10:30:39;;;;;;;8.27;1.33;;;14.10;99.90;;;;;;4895876;29;20115;-90
2022/11/09 10:33:07;;;;;;;9.02;1.02;;;14.30;99.90;;;;;;4895488;29;20064;-90
2022/11/09 10:35:40;;;;;;;6.55;1.25;;;14.60;99.90;;;;;;4895904;29;20057;-90
2022/11/09 10:38:20;;;;;;;6.53;1.20;;;14.90;99.90;;;;;;4895360;29;20036;-90
2022/11/09 10:40:53;;;;;;;10.30;1.33;;;15.10;99.90;;;;;;4895826;29;20558;-89
2022/11/09 10:43:19;;;;;;;4.20;0.90;;;15.30;99.90;;;;;;4895498;29;20153;-88
2022/11/09 10:45:55;;;;;;;6.13;1.30;;;15.40;99.90;;;;;;4923199;29;20133;-90
2022/11/09 10:48:31;;;;;;;7.68;1.33;;;15.60;99.90;;;;;;4938098;29;20257;-90
2022/11/09 10:50:57;;;;;;;6.32;1.13;;;15.70;99.90;;;;;;4938910;29;20023;-90
2022/11/09 10:53:33;;;;;;;7.55;1.17;;;15.70;98.90;;;;;;4938016;29;20031;-89
2022/11/09 10:56:13;;;;;;;8.45;1.50;;;15.60;98.10;;;;;;4940444;29;20047;-89
2022/11/09 10:58:44;;;;;;;;;;;15.50;97.80;;;;;;4957300;29;20503;-88
2022/11/09 11:01:24;;;;;;;7.65;1.77;;;15.40;98.20;;;;;;4937963;29;20005;-88
2022/11/09 11:03:54;;;;;;;3.13;1.00;;;15.50;98.30;;;;;;4939960;29;20027;-89
2022/11/09 11:06:20;;;;;;;6.03;1.02;;;15.50;97.90;;;;;;4940889;29;20032;-91
2022/11/09 11:09:09;;;;;;;6.65;1.15;;;15.60;97.30;;;;;;4956290;29;20043;-90
2022/11/09 11:11:36;;;;;;;5.47;1.10;;;15.70;96.70;;;;;;4940691;29;20114;-90
2022/11/09 11:14:35;;;;;;;6.05;1.30;;;15.60;96.30;;;;;;4940699;29;20063;-89
2022/11/09 11:17:01;;;;;;;7.22;1.45;;;15.30;96.10;;;;;;4940809;29;20058;-93
2022/11/09 11:19:37;;;;;;;5.47;1.00;;;14.90;96.50;;;;;;4940909;29;20027;-91
2022/11/09 11:22:17;;;;;;;8.77;1.60;;;14.50;97.20;;;;;;4942218;29;20025;-91
2022/11/09 11:25:17;;;;;;;5.57;1.30;;;14.10;98.30;;;;;;4944764;29;20043;-91
2022/11/09 11:27:53;;;;;;;5.28;0.80;;;14.00;99.40;;;;;;4940673;29;20548;-91
2022/11/09 11:30:34;;;;;;;6.35;1.20;;;14.00;99.90;;;;;;4940763;29;20169;-91
2022/11/09 11:33:01;;;;;;;5.80;1.00;;;14.30;99.90;;;;;;4940456;29;20039;-91
2022/11/09 11:35:48;;;;;;;5.28;1.13;;;14.80;99.90;;;;;;4940580;29;20115;-92
2022/11/09 11:38:32;;;;;;;2.92;1.20;;;15.20;99.00;;;;;;4936000;29;20035;-88
2022/11/09 11:41:35;;;;;;;4.45;1.20;;;15.60;97.80;;;;;;4940259;29;20047;-88
2022/11/09 11:44:15;;;;;;;8.75;1.60;;;16.00;96.90;;;;;;4939921;28;20496;-89
2022/11/09 11:47:08;;;;;;;2.58;0.85;;;16.20;95.20;;;;;;4956252;29;20036;-89
2022/11/09 11:49:43;;;;;;;5.55;1.10;;;16.50;94.30;;;;;;4940074;29;20031;-89
2022/11/09 11:52:22;;;;;;;4.90;1.08;;;16.50;94.00;;;;;;4939392;29;20023;-90
2022/11/09 11:55:06;;;;;;;4.47;1.20;;;16.70;93.40;;;;;;4956222;29;20552;-90
2022/11/09 11:58:14;;;;;;;3.85;1.15;;;16.80;92.90;;;;;;4939982;29;20039;-89
2022/11/09 12:01:15;;;;;;;7.90;1.20;;;16.90;91.50;;;;;;4920917;29;20035;-91
2022/11/09 12:04:12;;;;;;;8.63;1.20;;;16.80;90.70;;;;;;4918067;29;20036;-91
2022/11/09 12:06:53;;;;;;;7.97;1.27;;;16.60;90.70;;;;;;4936262;29;20106;-90
2022/11/09 12:09:26;;;;;;;4.68;0.75;;;16.50;90.70;;;;;;4936760;29;20062;-89
2022/11/09 12:12:19;;;;;;;6.35;1.10;;;16.50;90.80;;;;;;4921408;29;20047;-91
2022/11/09 12:15:01;;;;;;;7.20;1.02;;;16.50;90.50;;;;;;4911868;29;20254;-95
2022/11/09 12:18:15;;;;;;;5.90;0.82;;;16.30;90.70;;;;;;4943149;29;20032;-96
2022/11/09 12:20:47;;;;;;;5.07;1.35;;;16.10;90.70;;;;;;4885154;29;20077;-96
2022/11/09 12:23:15;;;;;;;5.50;1.17;;;15.90;90.90;;;;;;4886579;29;20093;-95
2022/11/09 12:26:18;;;;;;;5.13;0.90;;;16.10;91.40;;;;;;4887746;29;20032;-96
2022/11/09 12:29:15;;;;;;;5.03;1.02;;;16.20;91.10;;;;;;4886728;29;20044;-96
2022/11/09 12:32:17;;;;;;;6.75;1.02;;;16.20;90.90;;;;;;4886773;29;20037;-96
2022/11/09 12:35:08;;;;;;;9.73;1.40;;;16.10;90.80;;;;;;4888290;29;20029;-95
2022/11/09 12:37:42;;;;;;;6.05;1.02;;;15.90;90.60;;;;;;4887755;29;20384;-95
2022/11/09 12:40:28;;;;;;;11.30;1.63;;;15.70;91.00;;;;;;4883098;29;20029;-94
2022/11/09 12:42:57;;;;;;;9.23;2.67;;;15.60;91.40;;;;;;4883581;29;20033;-95
2022/11/09 12:45:32;;;;;;;4.82;0.93;;;15.50;91.70;;;;;;4883889;29;20549;-95
2022/11/09 12:48:05;;;;;;;3.22;1.02;;;15.50;91.70;;;;;;4882830;29;20040;-95
2022/11/09 12:50:32;;;;;;;4.55;1.10;;;15.70;91.90;;;;;;4887190;29;20068;-95
2022/11/09 12:52:59;;;;;;;6.60;1.05;;;16.10;91.70;;;;;;4902573;29;20510;-96
2022/11/09 12:55:36;;;;;;;7.68;1.20;;;16.50;91.00;;;;;;4910574;29;20040;-96
2022/11/09 12:58:02;;;;;;;5.65;1.15;;;16.70;90.10;;;;;;4948452;29;20024;-95
2022/11/09 13:00:43;;;;;;;3.90;1.00;;;16.70;89.10;;;;;;4932466;29;20031;-95
2022/11/09 13:03:20;;;;;;;6.30;0.70;;;16.60;88.60;;;;;;4950491;29;20035;-96
2022/11/09 13:05:48;;;;;;;6.70;1.10;;;16.70;87.90;;;;;;4948190;29;20067;-95
2022/11/09 13:08:28;;;;;;;5.90;0.82;;;16.70;86.80;;;;;;4950318;29;20043;-95
2022/11/09 13:11:19;;;;;;;11.00;1.67;;;16.70;86.80;;;;;;4942166;29;20114;-96